sensor_id;sensor_type;location;lat;lon;timestamp;P1;durP1;ratioP1;P2;durP2;ratioP2
11709;SDS011;5911;51.036;6.972;2023-04-10T00:01:23;12.80;;;8.80;;
11709;SDS011;5911;51.036;6.972;2023-04-10T00:03:51;9.33;;;8.27;;
11709;SDS011;5911;51.036;6.972;2023-04-10T00:06:19;8.80;;;7.90;;
11709;SDS011;5911;51.036;6.972;2023-04-10T00:08:47;8.37;;;7.50;;
11709;SDS011;5911;51.036;6.972;2023-04-10T00:11:15;9.23;;;8.17;;
11709;SDS011;5911;51.036;6.972;2023-04-10T00:13:43;9.03;;;8.10;;
11709;SDS011;5911;51.036;6.972;2023-04-10T00:16:10;9.97;;;8.17;;
11709;SDS011;5911;51.036;6.972;2023-04-10T00:18:39;10.50;;;8.47;;
11709;SDS011;5911;51.036;6.972;2023-04-10T00:21:07;8.80;;;7.87;;
11709;SDS011;5911;51.036;6.972;2023-04-10T00:23:35;10.73;;;8.20;;
11709;SDS011;5911;51.036;6.972;2023-04-10T00:26:03;10.57;;;9.23;;
11709;SDS011;5911;51.036;6.972;2023-04-10T00:28:31;12.27;;;8.53;;
11709;SDS011;5911;51.036;6.972;2023-04-10T00:31:03;10.27;;;8.37;;
11709;SDS011;5911;51.036;6.972;2023-04-10T00:33:31;12.37;;;8.63;;
11709;SDS011;5911;51.036;6.972;2023-04-10T00:36:00;10.67;;;8.83;;
11709;SDS011;5911;51.036;6.972;2023-04-10T00:38:28;9.97;;;8.27;;
11709;SDS011;5911;51.036;6.972;2023-04-10T00:40:56;12.10;;;9.67;;
11709;SDS011;5911;51.036;6.972;2023-04-10T00:43:24;10.03;;;8.20;;
11709;SDS011;5911;51.036;6.972;2023-04-10T00:45:52;10.63;;;9.00;;
11709;SDS011;5911;51.036;6.972;2023-04-10T00:48:20;12.67;;;9.97;;
11709;SDS011;5911;51.036;6.972;2023-04-10T00:50:48;14.90;;;9.50;;
11709;SDS011;5911;51.036;6.972;2023-04-10T00:53:17;10.03;;;8.90;;
11709;SDS011;5911;51.036;6.972;2023-04-10T00:55:45;12.40;;;9.60;;
11709;SDS011;5911;51.036;6.972;2023-04-10T00:58:14;11.23;;;9.90;;
11709;SDS011;5911;51.036;6.972;2023-04-10T01:00:42;12.83;;;10.23;;
11709;SDS011;5911;51.036;6.972;2023-04-10T01:03:10;16.90;;;11.03;;
11709;SDS011;5911;51.036;6.972;2023-04-10T01:05:41;16.87;;;11.77;;
11709;SDS011;5911;51.036;6.972;2023-04-10T01:08:22;16.97;;;11.50;;
11709;SDS011;5911;51.036;6.972;2023-04-10T01:10:58;16.27;;;10.67;;
11709;SDS011;5911;51.036;6.972;2023-04-10T01:13:33;12.27;;;10.63;;
11709;SDS011;5911;51.036;6.972;2023-04-10T01:16:10;16.37;;;11.10;;
11709;SDS011;5911;51.036;6.972;2023-04-10T01:18:43;13.33;;;10.57;;
11709;SDS011;5911;51.036;6.972;2023-04-10T01:21:16;12.80;;;10.77;;
11709;SDS011;5911;51.036;6.972;2023-04-10T01:23:53;15.83;;;11.07;;
11709;SDS011;5911;51.036;6.972;2023-04-10T01:26:40;14.90;;;11.23;;
11709;SDS011;5911;51.036;6.972;2023-04-10T01:29:20;19.83;;;12.87;;
11709;SDS011;5911;51.036;6.972;2023-04-10T01:31:57;17.20;;;11.87;;
11709;SDS011;5911;51.036;6.972;2023-04-10T01:34:31;14.73;;;11.67;;
11709;SDS011;5911;51.036;6.972;2023-04-10T01:37:03;17.63;;;11.20;;
11709;SDS011;5911;51.036;6.972;2023-04-10T01:39:35;13.70;;;10.40;;
11709;SDS011;5911;51.036;6.972;2023-04-10T01:42:06;13.03;;;10.07;;
11709;SDS011;5911;51.036;6.972;2023-04-10T01:44:40;10.70;;;9.60;;
11709;SDS011;5911;51.036;6.972;2023-04-10T01:47:10;10.97;;;9.47;;
11709;SDS011;5911;51.036;6.972;2023-04-10T01:49:41;10.20;;;9.10;;
11709;SDS011;5911;51.036;6.972;2023-04-10T01:52:11;9.67;;;8.67;;
11709;SDS011;5911;51.036;6.972;2023-04-10T01:54:44;11.07;;;9.70;;
11709;SDS011;5911;51.036;6.972;2023-04-10T01:57:20;11.23;;;10.00;;
11709;SDS011;5911;51.036;6.972;2023-04-10T01:59:56;12.63;;;10.70;;
11709;SDS011;5911;51.036;6.972;2023-04-10T02:02:24;14.40;;;10.40;;
11709;SDS011;5911;51.036;6.972;2023-04-10T02:04:56;13.57;;;10.03;;
11709;SDS011;5911;51.036;6.972;2023-04-10T02:07:26;12.63;;;9.90;;
11709;SDS011;5911;51.036;6.972;2023-04-10T02:09:59;16.07;;;11.43;;
11709;SDS011;5911;51.036;6.972;2023-04-10T02:12:32;15.50;;;10.27;;
11709;SDS011;5911;51.036;6.972;2023-04-10T02:15:06;19.57;;;11.63;;
11709;SDS011;5911;51.036;6.972;2023-04-10T02:17:36;17.57;;;11.97;;
11709;SDS011;5911;51.036;6.972;2023-04-10T02:20:06;20.80;;;11.87;;
11709;SDS011;5911;51.036;6.972;2023-04-10T02:22:35;18.43;;;11.83;;
11709;SDS011;5911;51.036;6.972;2023-04-10T02:25:04;21.30;;;12.47;;
11709;SDS011;5911;51.036;6.972;2023-04-10T02:27:33;18.20;;;11.87;;
11709;SDS011;5911;51.036;6.972;2023-04-10T02:30:02;14.13;;;10.57;;
11709;SDS011;5911;51.036;6.972;2023-04-10T02:32:34;17.03;;;11.10;;
11709;SDS011;5911;51.036;6.972;2023-04-10T02:35:06;11.53;;;8.77;;
11709;SDS011;5911;51.036;6.972;2023-04-10T02:37:36;11.47;;;8.73;;
11709;SDS011;5911;51.036;6.972;2023-04-10T02:40:04;12.60;;;9.43;;
11709;SDS011;5911;51.036;6.972;2023-04-10T02:42:50;9.57;;;8.47;;
11709;SDS011;5911;51.036;6.972;2023-04-10T02:45:18;10.03;;;8.83;;
11709;SDS011;5911;51.036;6.972;2023-04-10T02:47:47;9.83;;;8.70;;
11709;SDS011;5911;51.036;6.972;2023-04-10T02:50:15;10.10;;;9.10;;
11709;SDS011;5911;51.036;6.972;2023-04-10T02:52:44;11.13;;;9.40;;
11709;SDS011;5911;51.036;6.972;2023-04-10T02:55:12;11.43;;;8.47;;
11709;SDS011;5911;51.036;6.972;2023-04-10T02:57:41;10.47;;;8.80;;
11709;SDS011;5911;51.036;6.972;2023-04-10T03:00:09;9.87;;;8.83;;
11709;SDS011;5911;51.036;6.972;2023-04-10T03:03:08;11.93;;;8.90;;
11709;SDS011;5911;51.036;6.972;2023-04-10T03:05:47;9.77;;;8.37;;
11709;SDS011;5911;51.036;6.972;2023-04-10T03:08:21;11.63;;;9.60;;
11709;SDS011;5911;51.036;6.972;2023-04-10T03:10:49;10.03;;;8.60;;
11709;SDS011;5911;51.036;6.972;2023-04-10T03:13:16;9.27;;;8.30;;
11709;SDS011;5911;51.036;6.972;2023-04-10T03:15:45;10.20;;;9.00;;
11709;SDS011;5911;51.036;6.972;2023-04-10T03:18:14;9.80;;;8.03;;
11709;SDS011;5911;51.036;6.972;2023-04-10T03:20:44;8.90;;;8.00;;
11709;SDS011;5911;51.036;6.972;2023-04-10T03:23:12;9.60;;;8.60;;
11709;SDS011;5911;51.036;6.972;2023-04-10T03:25:40;9.13;;;8.20;;
11709;SDS011;5911;51.036;6.972;2023-04-10T03:28:09;9.83;;;8.83;;
11709;SDS011;5911;51.036;6.972;2023-04-10T03:30:37;8.90;;;7.87;;
11709;SDS011;5911;51.036;6.972;2023-04-10T03:33:05;8.97;;;8.07;;
11709;SDS011;5911;51.036;6.972;2023-04-10T03:35:34;8.87;;;7.97;;
11709;SDS011;5911;51.036;6.972;2023-04-10T03:38:02;9.00;;;8.10;;
11709;SDS011;5911;51.036;6.972;2023-04-10T03:40:29;9.27;;;8.13;;
11709;SDS011;5911;51.036;6.972;2023-04-10T03:42:59;9.30;;;7.90;;
11709;SDS011;5911;51.036;6.972;2023-04-10T03:45:30;8.53;;;7.40;;
11709;SDS011;5911;51.036;6.972;2023-04-10T03:47:58;10.20;;;7.67;;
11709;SDS011;5911;51.036;6.972;2023-04-10T03:50:37;9.03;;;7.90;;
11709;SDS011;5911;51.036;6.972;2023-04-10T03:53:05;8.60;;;7.70;;
11709;SDS011;5911;51.036;6.972;2023-04-10T03:55:33;8.37;;;7.33;;
11709;SDS011;5911;51.036;6.972;2023-04-10T03:58:02;8.90;;;8.00;;
11709;SDS011;5911;51.036;6.972;2023-04-10T04:00:31;8.37;;;7.27;;
11709;SDS011;5911;51.036;6.972;2023-04-10T04:03:16;9.00;;;7.97;;
11709;SDS011;5911;51.036;6.972;2023-04-10T04:05:45;9.27;;;7.20;;
11709;SDS011;5911;51.036;6.972;2023-04-10T04:08:29;8.30;;;7.23;;
11709;SDS011;5911;51.036;6.972;2023-04-10T04:11:03;8.47;;;7.13;;
11709;SDS011;5911;51.036;6.972;2023-04-10T04:13:52;8.93;;;7.57;;
11709;SDS011;5911;51.036;6.972;2023-04-10T04:16:35;9.13;;;8.23;;
11709;SDS011;5911;51.036;6.972;2023-04-10T04:19:21;8.00;;;7.20;;
11709;SDS011;5911;51.036;6.972;2023-04-10T04:22:06;7.23;;;6.53;;
11709;SDS011;5911;51.036;6.972;2023-04-10T04:24:52;7.90;;;6.63;;
11709;SDS011;5911;51.036;6.972;2023-04-10T04:27:46;8.07;;;6.40;;
11709;SDS011;5911;51.036;6.972;2023-04-10T04:30:30;8.37;;;7.33;;
11709;SDS011;5911;51.036;6.972;2023-04-10T04:33:23;9.13;;;7.53;;
11709;SDS011;5911;51.036;6.972;2023-04-10T04:36:01;11.17;;;8.63;;
11709;SDS011;5911;51.036;6.972;2023-04-10T04:38:56;12.70;;;9.40;;
11709;SDS011;5911;51.036;6.972;2023-04-10T04:41:30;12.50;;;8.40;;
11709;SDS011;5911;51.036;6.972;2023-04-10T04:44:18;10.30;;;7.40;;
11709;SDS011;5911;51.036;6.972;2023-04-10T04:47:06;9.07;;;7.60;;
11709;SDS011;5911;51.036;6.972;2023-04-10T04:50:09;9.37;;;7.67;;
11709;SDS011;5911;51.036;6.972;2023-04-10T04:53:12;9.00;;;7.53;;
11709;SDS011;5911;51.036;6.972;2023-04-10T04:55:52;8.10;;;7.07;;
11709;SDS011;5911;51.036;6.972;2023-04-10T04:58:42;8.87;;;6.87;;
11709;SDS011;5911;51.036;6.972;2023-04-10T05:01:26;8.57;;;7.50;;
11709;SDS011;5911;51.036;6.972;2023-04-10T05:04:13;8.03;;;7.23;;
11709;SDS011;5911;51.036;6.972;2023-04-10T05:07:01;8.00;;;7.17;;
11709;SDS011;5911;51.036;6.972;2023-04-10T05:09:55;8.93;;;7.77;;
11709;SDS011;5911;51.036;6.972;2023-04-10T05:12:43;8.80;;;7.53;;
11709;SDS011;5911;51.036;6.972;2023-04-10T05:15:34;10.30;;;7.30;;
11709;SDS011;5911;51.036;6.972;2023-04-10T05:18:25;9.83;;;7.50;;
11709;SDS011;5911;51.036;6.972;2023-04-10T05:20:59;10.43;;;8.27;;
11709;SDS011;5911;51.036;6.972;2023-04-10T05:23:50;12.47;;;9.80;;
11709;SDS011;5911;51.036;6.972;2023-04-10T05:26:41;15.20;;;9.80;;
11709;SDS011;5911;51.036;6.972;2023-04-10T05:29:30;13.40;;;9.00;;
11709;SDS011;5911;51.036;6.972;2023-04-10T05:32:17;14.57;;;9.70;;
11709;SDS011;5911;51.036;6.972;2023-04-10T05:35:11;15.30;;;10.07;;
11709;SDS011;5911;51.036;6.972;2023-04-10T05:37:45;12.17;;;9.43;;
11709;SDS011;5911;51.036;6.972;2023-04-10T05:40:28;15.07;;;9.20;;
11709;SDS011;5911;51.036;6.972;2023-04-10T05:43:19;16.37;;;9.93;;
11709;SDS011;5911;51.036;6.972;2023-04-10T05:46:12;12.57;;;9.00;;
11709;SDS011;5911;51.036;6.972;2023-04-10T05:48:58;14.73;;;9.97;;
11709;SDS011;5911;51.036;6.972;2023-04-10T05:51:39;12.37;;;8.80;;
11709;SDS011;5911;51.036;6.972;2023-04-10T05:54:16;13.17;;;9.10;;
11709;SDS011;5911;51.036;6.972;2023-04-10T05:57:06;12.40;;;8.93;;
11709;SDS011;5911;51.036;6.972;2023-04-10T05:59:53;12.87;;;8.77;;
11709;SDS011;5911;51.036;6.972;2023-04-10T06:02:22;14.57;;;9.70;;
11709;SDS011;5911;51.036;6.972;2023-04-10T06:04:50;10.93;;;8.50;;
11709;SDS011;5911;51.036;6.972;2023-04-10T06:07:19;12.03;;;9.20;;
11709;SDS011;5911;51.036;6.972;2023-04-10T06:09:46;13.77;;;8.97;;
11709;SDS011;5911;51.036;6.972;2023-04-10T06:12:14;11.20;;;8.47;;
11709;SDS011;5911;51.036;6.972;2023-04-10T06:14:42;12.43;;;9.57;;
11709;SDS011;5911;51.036;6.972;2023-04-10T06:17:10;15.07;;;9.53;;
11709;SDS011;5911;51.036;6.972;2023-04-10T06:19:39;10.83;;;8.53;;
11709;SDS011;5911;51.036;6.972;2023-04-10T06:22:07;9.90;;;8.17;;
11709;SDS011;5911;51.036;6.972;2023-04-10T06:24:35;12.50;;;9.13;;
11709;SDS011;5911;51.036;6.972;2023-04-10T06:27:04;9.60;;;8.37;;
11709;SDS011;5911;51.036;6.972;2023-04-10T06:29:33;10.70;;;8.47;;
11709;SDS011;5911;51.036;6.972;2023-04-10T06:32:01;11.10;;;8.10;;
11709;SDS011;5911;51.036;6.972;2023-04-10T06:34:33;9.07;;;8.13;;
11709;SDS011;5911;51.036;6.972;2023-04-10T06:37:06;11.83;;;8.50;;
11709;SDS011;5911;51.036;6.972;2023-04-10T06:39:35;9.60;;;7.70;;
11709;SDS011;5911;51.036;6.972;2023-04-10T06:42:04;9.63;;;8.17;;
11709;SDS011;5911;51.036;6.972;2023-04-10T06:44:41;9.20;;;7.90;;
11709;SDS011;5911;51.036;6.972;2023-04-10T06:47:09;9.73;;;7.30;;
11709;SDS011;5911;51.036;6.972;2023-04-10T06:49:38;9.40;;;8.30;;
11709;SDS011;5911;51.036;6.972;2023-04-10T06:52:07;10.10;;;8.47;;
11709;SDS011;5911;51.036;6.972;2023-04-10T06:54:36;10.40;;;8.33;;
11709;SDS011;5911;51.036;6.972;2023-04-10T06:57:04;9.83;;;8.03;;
11709;SDS011;5911;51.036;6.972;2023-04-10T06:59:32;10.70;;;8.63;;
11709;SDS011;5911;51.036;6.972;2023-04-10T07:02:01;11.13;;;8.33;;
11709;SDS011;5911;51.036;6.972;2023-04-10T07:04:29;10.10;;;8.13;;
11709;SDS011;5911;51.036;6.972;2023-04-10T07:06:59;9.73;;;8.03;;
11709;SDS011;5911;51.036;6.972;2023-04-10T07:09:28;10.40;;;8.53;;
11709;SDS011;5911;51.036;6.972;2023-04-10T07:11:57;11.00;;;8.17;;
11709;SDS011;5911;51.036;6.972;2023-04-10T07:14:25;11.70;;;8.97;;
11709;SDS011;5911;51.036;6.972;2023-04-10T07:16:52;10.90;;;7.83;;
11709;SDS011;5911;51.036;6.972;2023-04-10T07:19:26;12.27;;;8.83;;
11709;SDS011;5911;51.036;6.972;2023-04-10T07:21:54;9.37;;;7.77;;
11709;SDS011;5911;51.036;6.972;2023-04-10T07:24:22;8.77;;;7.23;;
11709;SDS011;5911;51.036;6.972;2023-04-10T07:26:52;10.93;;;7.53;;
11709;SDS011;5911;51.036;6.972;2023-04-10T07:29:22;10.07;;;7.80;;
11709;SDS011;5911;51.036;6.972;2023-04-10T07:31:54;15.40;;;7.53;;
11709;SDS011;5911;51.036;6.972;2023-04-10T07:34:22;10.13;;;7.67;;
11709;SDS011;5911;51.036;6.972;2023-04-10T07:36:51;9.23;;;7.27;;
11709;SDS011;5911;51.036;6.972;2023-04-10T07:39:19;9.27;;;7.83;;
11709;SDS011;5911;51.036;6.972;2023-04-10T07:41:46;9.50;;;7.30;;
11709;SDS011;5911;51.036;6.972;2023-04-10T07:44:15;8.73;;;6.50;;
11709;SDS011;5911;51.036;6.972;2023-04-10T07:46:43;9.67;;;6.93;;
11709;SDS011;5911;51.036;6.972;2023-04-10T07:49:11;7.43;;;6.47;;
11709;SDS011;5911;51.036;6.972;2023-04-10T07:51:39;8.17;;;6.33;;
11709;SDS011;5911;51.036;6.972;2023-04-10T07:54:06;8.37;;;6.27;;
11709;SDS011;5911;51.036;6.972;2023-04-10T07:56:34;9.97;;;6.70;;
11709;SDS011;5911;51.036;6.972;2023-04-10T07:59:02;7.27;;;6.50;;
11709;SDS011;5911;51.036;6.972;2023-04-10T08:01:31;8.73;;;6.60;;
11709;SDS011;5911;51.036;6.972;2023-04-10T08:03:59;6.97;;;6.20;;
11709;SDS011;5911;51.036;6.972;2023-04-10T08:06:31;6.60;;;5.93;;
11709;SDS011;5911;51.036;6.972;2023-04-10T08:08:59;9.77;;;6.47;;
11709;SDS011;5911;51.036;6.972;2023-04-10T08:11:28;7.93;;;6.00;;
11709;SDS011;5911;51.036;6.972;2023-04-10T08:13:57;6.77;;;6.07;;
11709;SDS011;5911;51.036;6.972;2023-04-10T08:16:28;6.90;;;5.87;;
11709;SDS011;5911;51.036;6.972;2023-04-10T08:18:58;6.77;;;5.70;;
11709;SDS011;5911;51.036;6.972;2023-04-10T08:21:27;10.37;;;6.27;;
11709;SDS011;5911;51.036;6.972;2023-04-10T08:23:57;7.20;;;5.53;;
11709;SDS011;5911;51.036;6.972;2023-04-10T08:26:26;6.95;;;6.05;;
11709;SDS011;5911;51.036;6.972;2023-04-10T08:28:54;7.10;;;6.40;;
11709;SDS011;5911;51.036;6.972;2023-04-10T08:31:24;6.50;;;5.90;;
11709;SDS011;5911;51.036;6.972;2023-04-10T08:33:53;6.57;;;5.90;;
11709;SDS011;5911;51.036;6.972;2023-04-10T08:36:23;6.43;;;5.70;;
11709;SDS011;5911;51.036;6.972;2023-04-10T08:38:52;9.77;;;6.43;;
11709;SDS011;5911;51.036;6.972;2023-04-10T08:41:20;7.93;;;6.43;;
11709;SDS011;5911;51.036;6.972;2023-04-10T08:43:48;6.70;;;5.90;;
11709;SDS011;5911;51.036;6.972;2023-04-10T08:46:17;6.85;;;5.38;;
11709;SDS011;5911;51.036;6.972;2023-04-10T08:48:46;5.67;;;5.07;;
11709;SDS011;5911;51.036;6.972;2023-04-10T08:51:16;6.90;;;5.63;;
11709;SDS011;5911;51.036;6.972;2023-04-10T08:53:55;5.97;;;5.15;;
11709;SDS011;5911;51.036;6.972;2023-04-10T08:56:28;6.13;;;5.45;;
11709;SDS011;5911;51.036;6.972;2023-04-10T08:59:00;5.90;;;5.30;;
11709;SDS011;5911;51.036;6.972;2023-04-10T09:01:28;6.90;;;5.60;;
11709;SDS011;5911;51.036;6.972;2023-04-10T09:03:57;6.15;;;4.55;;
11709;SDS011;5911;51.036;6.972;2023-04-10T09:06:25;7.60;;;5.35;;
11709;SDS011;5911;51.036;6.972;2023-04-10T09:08:55;7.17;;;5.40;;
11709;SDS011;5911;51.036;6.972;2023-04-10T09:11:37;7.70;;;5.77;;
11709;SDS011;5911;51.036;6.972;2023-04-10T09:14:26;7.20;;;4.63;;
11709;SDS011;5911;51.036;6.972;2023-04-10T09:17:09;5.27;;;4.53;;
11709;SDS011;5911;51.036;6.972;2023-04-10T09:19:38;5.07;;;4.17;;
11709;SDS011;5911;51.036;6.972;2023-04-10T09:22:06;6.57;;;4.50;;
11709;SDS011;5911;51.036;6.972;2023-04-10T09:24:35;4.97;;;4.13;;
11709;SDS011;5911;51.036;6.972;2023-04-10T09:27:04;4.63;;;4.07;;
11709;SDS011;5911;51.036;6.972;2023-04-10T09:29:40;5.93;;;4.43;;
11709;SDS011;5911;51.036;6.972;2023-04-10T09:32:10;4.97;;;4.35;;
11709;SDS011;5911;51.036;6.972;2023-04-10T09:37:29;4.68;;;3.90;;
11709;SDS011;5911;51.036;6.972;2023-04-10T09:39:59;5.77;;;4.10;;
11709;SDS011;5911;51.036;6.972;2023-04-10T09:42:28;4.47;;;3.92;;
11709;SDS011;5911;51.036;6.972;2023-04-10T09:44:58;4.30;;;3.83;;
11709;SDS011;5911;51.036;6.972;2023-04-10T09:47:26;4.17;;;3.77;;
11709;SDS011;5911;51.036;6.972;2023-04-10T09:49:55;4.00;;;3.60;;
11709;SDS011;5911;51.036;6.972;2023-04-10T09:52:26;5.80;;;3.47;;
11709;SDS011;5911;51.036;6.972;2023-04-10T09:54:56;4.10;;;3.70;;
11709;SDS011;5911;51.036;6.972;2023-04-10T09:57:27;4.03;;;3.58;;
11709;SDS011;5911;51.036;6.972;2023-04-10T09:59:57;4.50;;;4.10;;
11709;SDS011;5911;51.036;6.972;2023-04-10T10:02:27;4.78;;;3.65;;
11709;SDS011;5911;51.036;6.972;2023-04-10T10:04:57;3.83;;;3.50;;
11709;SDS011;5911;51.036;6.972;2023-04-10T10:07:26;3.60;;;3.30;;
11709;SDS011;5911;51.036;6.972;2023-04-10T10:09:57;4.53;;;3.42;;
11709;SDS011;5911;51.036;6.972;2023-04-10T10:12:32;4.03;;;3.63;;
11709;SDS011;5911;51.036;6.972;2023-04-10T10:15:04;3.83;;;3.42;;
11709;SDS011;5911;51.036;6.972;2023-04-10T10:17:37;3.83;;;3.53;;
11709;SDS011;5911;51.036;6.972;2023-04-10T10:20:09;3.42;;;3.13;;
11709;SDS011;5911;51.036;6.972;2023-04-10T10:22:39;4.25;;;3.67;;
11709;SDS011;5911;51.036;6.972;2023-04-10T10:25:09;3.70;;;3.40;;
11709;SDS011;5911;51.036;6.972;2023-04-10T10:27:39;4.50;;;3.80;;
11709;SDS011;5911;51.036;6.972;2023-04-10T10:30:08;4.70;;;4.00;;
11709;SDS011;5911;51.036;6.972;2023-04-10T10:32:54;3.92;;;3.40;;
11709;SDS011;5911;51.036;6.972;2023-04-10T10:35:25;4.67;;;3.40;;
11709;SDS011;5911;51.036;6.972;2023-04-10T10:37:55;5.82;;;3.90;;
11709;SDS011;5911;51.036;6.972;2023-04-10T10:40:27;4.68;;;3.35;;
11709;SDS011;5911;51.036;6.972;2023-04-10T10:43:01;4.07;;;3.38;;
11709;SDS011;5911;51.036;6.972;2023-04-10T10:45:36;5.15;;;3.30;;
11709;SDS011;5911;51.036;6.972;2023-04-10T10:48:10;4.33;;;3.53;;
11709;SDS011;5911;51.036;6.972;2023-04-10T10:50:51;3.35;;;3.05;;
11709;SDS011;5911;51.036;6.972;2023-04-10T10:53:32;3.45;;;3.15;;
11709;SDS011;5911;51.036;6.972;2023-04-10T10:59:02;4.07;;;3.17;;
11709;SDS011;5911;51.036;6.972;2023-04-10T11:01:30;3.83;;;3.13;;
11709;SDS011;5911;51.036;6.972;2023-04-10T11:03:57;3.70;;;3.10;;
11709;SDS011;5911;51.036;6.972;2023-04-10T11:12:15;4.80;;;3.05;;
11709;SDS011;5911;51.036;6.972;2023-04-10T11:14:55;7.75;;;4.00;;
11709;SDS011;5911;51.036;6.972;2023-04-10T11:20:17;5.20;;;3.30;;
11709;SDS011;5911;51.036;6.972;2023-04-10T11:23:06;3.30;;;3.00;;
11709;SDS011;5911;51.036;6.972;2023-04-10T11:25:47;3.60;;;3.05;;
11709;SDS011;5911;51.036;6.972;2023-04-10T11:28:37;3.15;;;2.85;;
11709;SDS011;5911;51.036;6.972;2023-04-10T11:31:15;3.10;;;2.80;;
11709;SDS011;5911;51.036;6.972;2023-04-10T11:33:45;3.45;;;3.00;;
11709;SDS011;5911;51.036;6.972;2023-04-10T11:36:14;3.55;;;3.00;;
11709;SDS011;5911;51.036;6.972;2023-04-10T11:38:53;3.33;;;3.00;;
11709;SDS011;5911;51.036;6.972;2023-04-10T11:41:26;3.55;;;3.03;;
11709;SDS011;5911;51.036;6.972;2023-04-10T11:43:57;3.33;;;2.97;;
11709;SDS011;5911;51.036;6.972;2023-04-10T11:46:25;3.55;;;2.95;;
11709;SDS011;5911;51.036;6.972;2023-04-10T11:48:54;4.57;;;3.10;;
11709;SDS011;5911;51.036;6.972;2023-04-10T11:51:24;3.40;;;3.00;;
11709;SDS011;5911;51.036;6.972;2023-04-10T11:54:03;3.53;;;2.80;;
11709;SDS011;5911;51.036;6.972;2023-04-10T11:56:32;3.75;;;2.95;;
11709;SDS011;5911;51.036;6.972;2023-04-10T11:59:02;3.30;;;3.00;;
11709;SDS011;5911;51.036;6.972;2023-04-10T12:01:33;3.95;;;3.00;;
11709;SDS011;5911;51.036;6.972;2023-04-10T12:04:01;3.92;;;2.97;;
11709;SDS011;5911;51.036;6.972;2023-04-10T12:06:30;3.13;;;2.83;;
11709;SDS011;5911;51.036;6.972;2023-04-10T12:08:58;3.88;;;3.30;;
11709;SDS011;5911;51.036;6.972;2023-04-10T12:11:25;3.70;;;3.00;;
11709;SDS011;5911;51.036;6.972;2023-04-10T12:13:55;3.90;;;3.20;;
11709;SDS011;5911;51.036;6.972;2023-04-10T12:16:25;3.57;;;3.27;;
11709;SDS011;5911;51.036;6.972;2023-04-10T12:18:53;3.73;;;3.10;;
11709;SDS011;5911;51.036;6.972;2023-04-10T12:21:22;3.20;;;2.90;;
11709;SDS011;5911;51.036;6.972;2023-04-10T12:23:51;3.92;;;3.53;;
11709;SDS011;5911;51.036;6.972;2023-04-10T12:26:19;4.03;;;3.33;;
11709;SDS011;5911;51.036;6.972;2023-04-10T12:28:51;3.50;;;3.00;;
11709;SDS011;5911;51.036;6.972;2023-04-10T12:31:28;3.40;;;3.10;;
11709;SDS011;5911;51.036;6.972;2023-04-10T12:33:58;3.20;;;2.70;;
11709;SDS011;5911;51.036;6.972;2023-04-10T12:36:27;3.30;;;2.60;;
11709;SDS011;5911;51.036;6.972;2023-04-10T12:38:57;3.07;;;2.77;;
11709;SDS011;5911;51.036;6.972;2023-04-10T12:41:27;3.30;;;3.00;;
11709;SDS011;5911;51.036;6.972;2023-04-10T12:44:05;2.60;;;2.40;;
11709;SDS011;5911;51.036;6.972;2023-04-10T12:46:36;3.00;;;2.70;;
11709;SDS011;5911;51.036;6.972;2023-04-10T12:49:08;3.28;;;2.42;;
11709;SDS011;5911;51.036;6.972;2023-04-10T12:51:40;3.10;;;2.38;;
11709;SDS011;5911;51.036;6.972;2023-04-10T12:54:25;4.33;;;2.50;;
11709;SDS011;5911;51.036;6.972;2023-04-10T12:56:53;2.67;;;2.47;;
11709;SDS011;5911;51.036;6.972;2023-04-10T12:59:23;2.53;;;2.33;;
11709;SDS011;5911;51.036;6.972;2023-04-10T13:01:53;3.03;;;2.72;;
11709;SDS011;5911;51.036;6.972;2023-04-10T13:04:22;4.03;;;2.50;;
11709;SDS011;5911;51.036;6.972;2023-04-10T13:06:50;5.07;;;2.60;;
11709;SDS011;5911;51.036;6.972;2023-04-10T13:09:18;2.55;;;2.33;;
11709;SDS011;5911;51.036;6.972;2023-04-10T13:11:47;2.97;;;2.42;;
11709;SDS011;5911;51.036;6.972;2023-04-10T13:14:17;3.47;;;2.85;;
11709;SDS011;5911;51.036;6.972;2023-04-10T13:16:45;2.67;;;2.47;;
11709;SDS011;5911;51.036;6.972;2023-04-10T13:19:14;2.55;;;2.35;;
11709;SDS011;5911;51.036;6.972;2023-04-10T13:21:42;3.22;;;2.50;;
11709;SDS011;5911;51.036;6.972;2023-04-10T13:24:09;2.72;;;2.53;;
11709;SDS011;5911;51.036;6.972;2023-04-10T13:26:38;2.83;;;2.60;;
11709;SDS011;5911;51.036;6.972;2023-04-10T13:29:06;3.05;;;2.67;;
11709;SDS011;5911;51.036;6.972;2023-04-10T13:31:34;2.40;;;2.20;;
11709;SDS011;5911;51.036;6.972;2023-04-10T13:34:02;3.15;;;2.65;;
11709;SDS011;5911;51.036;6.972;2023-04-10T13:36:31;3.13;;;2.70;;
11709;SDS011;5911;51.036;6.972;2023-04-10T13:38:59;3.10;;;2.80;;
11709;SDS011;5911;51.036;6.972;2023-04-10T13:41:27;2.78;;;2.50;;
11709;SDS011;5911;51.036;6.972;2023-04-10T13:43:54;3.67;;;2.47;;
11709;SDS011;5911;51.036;6.972;2023-04-10T13:46:22;3.53;;;2.57;;
11709;SDS011;5911;51.036;6.972;2023-04-10T13:48:50;2.85;;;2.58;;
11709;SDS011;5911;51.036;6.972;2023-04-10T13:51:18;2.97;;;2.60;;
11709;SDS011;5911;51.036;6.972;2023-04-10T13:53:47;3.95;;;2.75;;
11709;SDS011;5911;51.036;6.972;2023-04-10T13:56:15;2.80;;;2.60;;
11709;SDS011;5911;51.036;6.972;2023-04-10T13:58:44;3.55;;;2.55;;
11709;SDS011;5911;51.036;6.972;2023-04-10T14:01:12;2.85;;;2.60;;
11709;SDS011;5911;51.036;6.972;2023-04-10T14:03:40;2.47;;;2.27;;
11709;SDS011;5911;51.036;6.972;2023-04-10T14:06:08;3.80;;;2.63;;
11709;SDS011;5911;51.036;6.972;2023-04-10T14:08:35;2.90;;;2.70;;
11709;SDS011;5911;51.036;6.972;2023-04-10T14:11:05;3.13;;;2.50;;
11709;SDS011;5911;51.036;6.972;2023-04-10T14:13:33;2.60;;;2.40;;
11709;SDS011;5911;51.036;6.972;2023-04-10T14:16:01;3.00;;;2.70;;
11709;SDS011;5911;51.036;6.972;2023-04-10T14:18:29;2.58;;;2.38;;
11709;SDS011;5911;51.036;6.972;2023-04-10T14:20:57;3.08;;;2.78;;
11709;SDS011;5911;51.036;6.972;2023-04-10T14:23:25;2.92;;;2.72;;
11709;SDS011;5911;51.036;6.972;2023-04-10T14:25:52;3.10;;;2.80;;
11709;SDS011;5911;51.036;6.972;2023-04-10T14:28:22;2.97;;;2.63;;
11709;SDS011;5911;51.036;6.972;2023-04-10T14:30:50;4.15;;;3.05;;
11709;SDS011;5911;51.036;6.972;2023-04-10T14:33:18;2.80;;;2.50;;
11709;SDS011;5911;51.036;6.972;2023-04-10T14:35:46;2.80;;;2.40;;
11709;SDS011;5911;51.036;6.972;2023-04-10T14:38:14;2.97;;;2.30;;
11709;SDS011;5911;51.036;6.972;2023-04-10T14:40:42;2.50;;;2.30;;
11709;SDS011;5911;51.036;6.972;2023-04-10T14:43:13;4.43;;;3.00;;
11709;SDS011;5911;51.036;6.972;2023-04-10T14:45:42;2.25;;;2.05;;
11709;SDS011;5911;51.036;6.972;2023-04-10T14:48:10;2.58;;;2.38;;
11709;SDS011;5911;51.036;6.972;2023-04-10T14:50:39;3.05;;;2.30;;
11709;SDS011;5911;51.036;6.972;2023-04-10T14:53:06;2.55;;;2.35;;
11709;SDS011;5911;51.036;6.972;2023-04-10T14:55:35;2.25;;;2.05;;
11709;SDS011;5911;51.036;6.972;2023-04-10T14:58:03;2.20;;;2.00;;
11709;SDS011;5911;51.036;6.972;2023-04-10T15:00:32;2.10;;;1.90;;
11709;SDS011;5911;51.036;6.972;2023-04-10T15:03:01;2.17;;;1.98;;
11709;SDS011;5911;51.036;6.972;2023-04-10T15:05:30;1.95;;;1.85;;
11709;SDS011;5911;51.036;6.972;2023-04-10T15:07:58;2.33;;;1.92;;
11709;SDS011;5911;51.036;6.972;2023-04-10T15:10:27;2.30;;;2.10;;
11709;SDS011;5911;51.036;6.972;2023-04-10T15:12:55;2.38;;;2.17;;
11709;SDS011;5911;51.036;6.972;2023-04-10T15:15:23;5.60;;;2.47;;
11709;SDS011;5911;51.036;6.972;2023-04-10T15:17:50;2.50;;;2.03;;
11709;SDS011;5911;51.036;6.972;2023-04-10T15:20:19;5.57;;;2.38;;
11709;SDS011;5911;51.036;6.972;2023-04-10T15:22:47;2.50;;;2.10;;
11709;SDS011;5911;51.036;6.972;2023-04-10T15:25:15;4.43;;;1.90;;
11709;SDS011;5911;51.036;6.972;2023-04-10T15:27:43;2.30;;;2.10;;
11709;SDS011;5911;51.036;6.972;2023-04-10T15:30:11;1.90;;;1.80;;
11709;SDS011;5911;51.036;6.972;2023-04-10T15:32:39;2.42;;;1.63;;
11709;SDS011;5911;51.036;6.972;2023-04-10T15:35:07;1.90;;;1.80;;
11709;SDS011;5911;51.036;6.972;2023-04-10T15:37:36;2.00;;;1.80;;
11709;SDS011;5911;51.036;6.972;2023-04-10T15:40:04;2.58;;;2.10;;